Latest Weather Observations for Mackay

IDQ60801

Issued at 6:02 pm EST Friday 24 March 2017 (issued every 30 minutes, with the page automatically refreshed every 10 minutes)

About weather observations | Map of weather stations | Latest weather observations for QLD | Other Formats
Station Details ID: 033119 Name: MACKAY M.O Lat: -21.12 Lon: 149.22 Height: 30.26 m
Data from the previous 72 hours. | See also: Recent months at Mackay
Date/Time
EST
Temp
°C
App
Temp
°C
Dew
Point
°C
Rel
Hum
%
Delta-T
°C
Wind Press
QNH
hPa
Press
MSL
hPa
Rain since
9am
mm
Dir  Spd
km/h
Gust
km/h
Spd
kts
Gust
kts
24/05:30pm 27.8 29.8 24.6 83 2.2 SE 22 35 12 19 1009.4 1009.2 0.0
24/05:00pm 28.0 29.3 24.0 79 2.8 SSE 24 35 13 19 1009.0 1008.8 0.0
24/04:30pm 28.0 30.5 24.8 83 2.2 SSE 20 35 11 19 1008.7 1008.5 0.0
24/04:00pm 28.0 29.9 24.4 81 2.5 SSE 22 35 12 19 1008.7 1008.5 0.0
24/03:30pm 27.8 30.2 25.2 86 1.8 SSE 22 37 12 20 1008.7 1008.5 0.0
24/03:00pm 28.6 31.1 24.8 80 2.7 SSE 20 33 11 18 1008.9 1008.7 0.0
24/02:30pm 28.9 31.2 25.7 83 2.3 SSE 24 35 13 19 1009.3 1009.1 0.0
24/02:00pm 28.6 31.3 25.6 84 2.1 SSE 22 35 12 19 1009.5 1009.3 0.0
24/01:30pm 29.6 33.3 26.6 84 2.1 SSE 20 30 11 16 1009.9 1009.7 0.0
24/01:00pm 29.3 32.5 26.5 85 2.0 SSE 22 35 12 19 1010.3 1010.1 0.0
24/12:30pm 28.6 31.1 26.0 86 1.8 SSE 24 41 13 22 1010.8 1010.6 0.0
24/12:00pm 29.2 33.3 27.2 89 1.4 SSE 20 33 11 18 1011.3 1011.0 0.0
24/11:30am 28.1 31.2 25.7 87 1.7 SSE 20 30 11 16 1011.6 1011.3 0.0
24/11:00am 28.1 31.8 26.3 90 1.3 SSE 19 32 10 17 1012.0 1011.7 0.0
24/10:30am 26.7 30.3 26.2 97 0.4 S 19 28 10 15 1012.3 1012.0 0.0
24/10:00am 25.7 29.2 25.5 99 0.1 S 17 24 9 13 1012.6 1012.4 0.0
24/09:30am 24.8 28.3 24.8 100 0.0 SSW 15 20 8 11 1012.7 1012.5 0.0
24/09:00am 24.4 27.6 24.4 100 0.0 SSW 15 20 8 11 1012.6 1012.4 140.2
24/08:30am 23.9 28.6 23.9 100 0.0 S 6 13 3 7 1012.7 1012.5 138.2
24/08:00am 23.7 28.0 23.7 100 0.0 SE 7 15 4 8 1012.5 1012.3 130.6
24/07:30am 23.8 27.1 23.8 100 0.0 S 13 20 7 11 1012.4 1012.2 126.8
24/07:00am 24.5 28.9 24.5 100 0.0 SE 9 17 5 9 1011.4 1011.1 125.6
24/06:30am 24.1 25.1 24.1 100 0.0 ENE 26 39 14 21 1011.3 1011.0 124.8
24/06:20am 24.0 26.0 24.0 100 0.0 ENE 20 32 11 17 1011.1 1010.8 124.8
24/06:00am 24.1 25.8 24.1 100 0.0 SE 22 33 12 18 1011.2 1010.9 123.4
24/05:53am 24.3 26.5 24.3 100 0.0 SSE 20 30 11 16 1010.7 1010.5 123.2
24/05:33am 24.1 26.2 24.1 100 0.0 S 20 32 11 17 1010.6 1010.4 123.2
24/05:30am 24.1 26.2 24.1 100 0.0 SSE 20 32 11 17 1010.5 1010.3 123.2
24/05:00am 24.3 26.5 24.3 100 0.0 S 20 32 11 17 1009.8 1009.6 123.2
24/04:51am 23.9 27.2 23.9 100 0.0 S 13 19 7 10 1009.8 1009.6 123.2
24/04:30am 23.5 26.6 23.5 100 0.0 SSW 13 17 7 9 1009.7 1009.5 123.2
24/04:00am 23.8 27.1 23.8 100 0.0 S 13 20 7 11 1009.7 1009.5 123.2
24/03:30am 23.4 26.4 23.4 100 0.0 SSW 13 17 7 9 1009.9 1009.7 123.0
24/03:00am 23.2 26.5 23.2 100 0.0 SSW 11 15 6 8 1009.8 1009.6 123.0
24/02:30am 23.3 27.0 23.3 100 0.0 SW 9 13 5 7 1010.0 1009.8 123.0
24/02:00am 23.3 26.3 23.3 100 0.0 SSW 13 17 7 9 1010.6 1010.4 123.0
24/01:30am 23.4 26.1 23.4 100 0.0 SW 15 19 8 10 1010.7 1010.5 121.6
24/01:00am 23.4 27.2 23.4 100 0.0 SW 9 13 5 7 1011.1 1010.8 121.6
24/12:30am 23.4 27.2 23.4 100 0.0 SSW 9 13 5 7 1011.4 1011.1 121.6
24/12:00am 23.4 26.8 23.4 100 0.0 SW 11 15 6 8 1011.9 1011.6 121.6
 
Date/Time
EST
Temp
°C
App
Temp
°C
Dew
Point
°C
Rel
Hum
%
Delta-T
°C
Wind Press
QNH
hPa
Press
MSL
hPa
Rain since
9am
mm
Dir  Spd
km/h
Gust
km/h
Spd
kts
Gust
kts
23/11:30pm 23.6 26.7 23.6 100 0.0 SW 13 17 7 9 1012.3 1012.0 121.6
23/11:00pm 23.8 27.4 23.8 100 0.0 SW 11 13 6 7 1012.6 1012.4 121.6
23/10:30pm 23.9 27.2 23.9 100 0.0 SSE 13 20 7 11 1012.8 1012.6 121.6
23/10:00pm 24.9 28.1 24.9 100 0.0 SE 17 28 9 15 1013.1 1012.9 121.2
23/09:30pm 24.6 30.1 24.6 100 0.0 NE 4 9 2 5 1013.2 1013.0 119.6
23/09:00pm 24.1 27.5 24.1 100 0.0 SE 13 28 7 15 1012.9 1012.7 117.4
23/08:30pm 24.5 27.0 24.5 100 0.0 E 19 33 10 18 1013.0 1012.8 111.8
23/08:00pm 24.1 28.3 24.1 100 0.0 W 9 15 5 8 1011.5 1011.2 92.6
23/07:30pm 24.0 27.8 24.0 100 0.0 WSW 11 15 6 8 1011.4 1011.1 92.2
23/07:00pm 24.2 28.5 24.2 100 0.0 WNW 9 13 5 7 1011.6 1011.3 90.8
23/06:30pm 24.2 28.8 24.2 100 0.0 W 7 9 4 5 1011.4 1011.1 89.0
23/06:00pm 24.2 29.4 24.2 100 0.0 NNW 4 9 2 5 1010.7 1010.5 88.8
23/05:30pm 24.3 29.0 24.3 100 0.0 N 7 9 4 5 1010.7 1010.5 87.2
23/05:00pm 24.5 27.8 24.5 100 0.0 NNW 15 22 8 12 1010.4 1010.2 80.0
23/04:30pm 24.6 29.1 24.6 100 0.0 SW 9 13 5 7 1009.8 1009.6 67.8
23/04:00pm 24.5 29.3 24.5 100 0.0 SW 7 9 4 5 1009.7 1009.5 61.4
23/03:30pm 24.6 28.7 24.6 100 0.0 SSE 11 20 6 11 1009.9 1009.7 61.4
23/03:00pm 24.8 30.4 24.8 100 0.0 SSW 4 6 2 3 1010.0 1009.8 59.6
23/02:30pm 24.7 30.2 24.7 100 0.0 N 4 7 2 4 1010.0 1009.8 59.6
23/02:00pm 24.3 29.0 24.3 100 0.0 NNE 7 9 4 5 1010.1 1009.9 59.0
23/01:30pm 24.3 29.0 24.3 100 0.0 SE 7 13 4 7 1010.5 1010.3 53.6
23/01:00pm 24.6 30.1 24.6 100 0.0 ESE 4 7 2 4 1011.1 1010.8 47.0
23/12:46pm 24.4 29.3 24.4 100 0.0 ENE 6 6 3 3 1011.3 1011.0 45.2
23/12:30pm 24.3 29.2 24.3 100 0.0 E 6 11 3 6 1011.6 1011.3 44.8
23/12:01pm 24.5 27.4 24.5 100 0.0 S 17 28 9 15 1011.7 1011.4 44.6
23/12:00pm 24.3 26.7 24.3 100 0.0 S 19 28 10 15 1011.7 1011.4 44.6
23/11:30am 24.0 26.0 24.0 100 0.0 SW 20 28 11 15 1011.6 1011.3 44.4
23/11:00am 24.0 26.6 24.0 100 0.0 SW 17 24 9 13 1012.2 1011.9 34.4
23/10:43am 24.2 27.3 24.2 100 0.0 WSW 15 24 8 13 1012.4 1012.2 14.6
23/10:30am 24.4 27.6 24.4 100 0.0 WSW 15 24 8 13 1012.3 1012.0 7.0
23/10:22am 24.5 28.2 24.5 100 0.0 WSW 13 22 7 12 1012.5 1012.3 2.6
23/10:00am 24.6 28.7 24.6 100 0.0 SW 11 15 6 8 1012.2 1011.9 1.2
23/09:30am 24.8 29.0 24.8 100 0.0 SW 11 17 6 9 1012.3 1012.0 0.2
23/09:00am 24.7 29.3 24.7 100 0.0 SSW 9 11 5 6 1011.9 1011.6 32.6
23/08:30am 24.6 29.1 24.6 100 0.0 WNW 9 13 5 7 1011.7 1011.4 32.6
23/08:00am 24.6 29.1 24.6 100 0.0 WNW 9 15 5 8 1011.6 1011.3 32.2
23/07:30am 24.5 29.3 24.5 100 0.0 W 7 13 4 7 1011.1 1010.8 32.0
23/07:00am 24.5 29.3 24.5 100 0.0 W 7 9 4 5 1010.8 1010.6 31.8
23/06:56am 24.5 29.3 24.5 100 0.0 W 7 9 4 5 1010.8 1010.6 31.8
23/06:37am 24.5 28.9 24.5 100 0.0 W 9 15 5 8 1010.7 1010.5 29.6
23/06:33am 24.7 29.6 24.7 100 0.0 SSW 7 15 4 8 1010.5 1010.3 27.8
23/06:30am 24.8 29.8 24.8 100 0.0 SSE 7 15 4 8 1010.5 1010.3 27.6
23/06:15am 24.4 28.4 24.4 100 0.0 SW 11 17 6 9 1010.7 1010.5 14.2
23/06:00am 24.9 28.7 24.7 99 0.1 WSW 13 19 7 10 1010.1 1009.9 0.8
23/05:30am 25.2 29.8 24.7 97 0.3 WSW 9 13 5 7 1009.8 1009.6 0.8
23/05:00am 25.8 31.4 24.8 94 0.7 SW 4 7 2 4 1009.8 1009.6 0.8
23/04:30am 26.2 31.5 25.2 94 0.7 NE 7 11 4 6 1009.4 1009.2 0.8
23/04:00am 25.9 31.2 25.2 96 0.5 NE 7 13 4 7 1009.4 1009.2 0.8
23/03:30am 25.7 30.6 25.2 97 0.3 NE 9 19 5 10 1009.1 1008.9 0.8
23/03:00am 25.7 29.8 25.2 97 0.3 NE 13 22 7 12 1009.1 1008.9 0.8
23/02:30am 25.9 30.6 25.6 98 0.2 NE 11 17 6 9 1009.1 1008.9 0.8
23/02:00am 26.6 31.2 25.4 93 0.8 NE 11 19 6 10 1009.2 1009.0 0.0
23/01:30am 26.6 31.3 25.6 94 0.7 NNE 11 17 6 9 1009.7 1009.5 0.0
23/01:00am 26.5 31.4 25.3 93 0.8 NNE 9 19 5 10 1009.9 1009.7 0.0
23/12:30am 26.5 31.3 25.1 92 1.0 NE 9 17 5 9 1010.1 1009.9 0.0
23/12:00am 26.6 31.6 25.4 93 0.8 NE 9 19 5 10 1010.6 1010.4 0.0
 
Date/Time
EST
Temp
°C
App
Temp
°C
Dew
Point
°C
Rel
Hum
%
Delta-T
°C
Wind Press
QNH
hPa
Press
MSL
hPa
Rain since
9am
mm
Dir  Spd
km/h
Gust
km/h
Spd
kts
Gust
kts
22/11:30pm 26.4 31.8 25.4 94 0.7 NE 7 13 4 7 1010.8 1010.6 0.0
22/11:00pm 26.4 31.7 25.2 93 0.8 NNE 7 11 4 6 1011.3 1011.0 0.0
22/10:30pm 26.6 31.5 25.2 92 1.0 NNE 9 17 5 9 1011.3 1011.0 0.0
22/10:00pm 26.6 31.6 25.4 93 0.8 NNE 9 17 5 9 1011.2 1010.9 0.0
22/09:30pm 26.6 31.1 25.2 92 1.0 NNE 11 20 6 11 1011.1 1010.8 0.0
22/09:00pm 26.6 31.6 25.4 93 0.8 NNE 9 19 5 10 1010.8 1010.6 0.0
22/08:30pm 26.7 31.4 25.5 93 0.8 NE 11 17 6 9 1010.3 1010.1 0.0
22/08:00pm 26.8 30.9 25.2 91 1.1 NE 13 22 7 12 1009.8 1009.6 0.0
22/07:30pm 26.7 30.6 24.9 90 1.3 NE 13 19 7 10 1009.6 1009.4 0.0
22/07:00pm 26.9 31.2 25.5 92 1.0 NE 13 24 7 13 1009.4 1009.2 0.0
22/06:30pm 26.9 31.5 25.3 91 1.1 NE 11 22 6 12 1008.9 1008.7 0.0
22/06:00pm 27.1 30.6 24.9 88 1.5 E 15 20 8 11 1008.9 1008.7 0.0
22/05:30pm 27.2 30.9 25.2 89 1.4 E 15 24 8 13 1008.7 1008.5 0.0
22/05:00pm 27.3 30.5 24.9 87 1.7 E 17 22 9 12 1008.5 1008.3 0.0
22/04:57pm 27.3 30.8 24.9 87 1.7 E 15 22 8 12 1008.5 1008.3 0.0
22/04:30pm 28.1 31.6 24.9 83 2.2 E 15 20 8 11 1008.5 1008.3 0.0
22/04:00pm 27.5 30.5 24.7 85 2.0 E 17 26 9 14 1008.4 1008.2 0.0
22/03:55pm 27.8 31.5 25.2 86 1.8 E 15 20 8 11 1008.4 1008.2 0.0
22/03:30pm 27.7 31.3 24.3 82 2.4 E 13 20 7 11 1008.4 1008.2 0.0
22/03:17pm 28.1 32.3 25.3 85 2.0 E 13 20 7 11 1008.6 1008.4 0.0
22/03:00pm 27.7 31.0 24.5 83 2.2 ESE 15 24 8 13 1008.3 1008.1 0.0
22/02:34pm 28.4 32.1 25.2 83 2.2 ESE 15 22 8 12 1008.2 1008.0 0.0
22/02:30pm 28.4 32.5 25.2 83 2.2 ESE 13 22 7 12 1008.3 1008.1 0.0
22/02:00pm 28.7 33.1 25.7 84 2.1 ESE 13 24 7 13 1008.6 1008.4 0.0
22/01:30pm 28.6 32.3 25.2 82 2.4 SE 15 24 8 13 1008.9 1008.7 0.0
22/01:15pm 28.4 31.9 24.8 81 2.5 SE 15 24 8 13 1009.0 1008.8 0.0
22/01:00pm 28.6 32.0 25.2 82 2.4 SE 17 24 9 13 1009.2 1009.0 0.0
22/12:30pm 28.7 32.4 25.1 81 2.5 SE 15 22 8 12 1010.0 1009.8 0.0
22/12:00pm 28.9 33.2 25.5 82 2.4 SE 13 20 7 11 1010.7 1010.5 0.0
22/11:30am 28.9 33.2 25.5 82 2.4 SE 13 20 7 11 1011.0 1010.7 0.0
22/11:11am 28.6 32.6 25.6 84 2.1 SE 15 20 8 11 1011.0 1010.7 0.0
22/11:00am 28.7 32.6 25.5 83 2.3 SE 15 22 8 12 1011.1 1010.8 0.0
22/10:30am 28.2 32.2 25.6 86 1.8 SSE 15 26 8 14 1011.2 1010.9 0.0
22/10:00am 27.5 31.4 25.5 89 1.4 SSE 15 24 8 13 1011.4 1011.1 0.0
22/09:30am 27.1 31.0 25.5 91 1.1 SSE 15 20 8 11 1011.9 1011.6 0.0
22/09:00am 26.2 30.1 24.8 92 1.0 SSE 13 20 7 11 1011.7 1011.4 33.0
22/08:57am 26.5 30.7 25.3 93 0.8 SSE 13 20 7 11 1011.6 1011.3 33.0
22/08:30am 25.7 29.3 25.0 96 0.5 S 15 20 8 11 1011.2 1010.9 33.0
22/08:00am 25.2 29.3 25.2 100 0.0 S 13 20 7 11 1010.8 1010.6 33.0
22/07:30am 24.3 28.2 24.3 100 0.0 SSW 11 13 6 7 1010.5 1010.3 33.0
22/07:00am 23.7 27.7 23.7 100 0.0 SW 9 15 5 8 1010.2 1010.0 33.0
22/06:30am 23.7 27.7 23.7 100 0.0 SW 9 11 5 6 1010.0 1009.8 33.0
22/06:00am 23.8 27.1 23.8 100 0.0 SW 13 17 7 9 1009.8 1009.6 33.0
22/05:30am 23.9 27.6 23.9 100 0.0 SSW 11 13 6 7 1009.8 1009.6 33.0
22/05:00am 23.9 28.4 23.9 100 0.0 SSW 7 9 4 5 1009.7 1009.5 33.0
22/04:30am 23.8 28.2 23.8 100 0.0 SSW 7 11 4 6 1009.3 1009.1 33.0
22/04:00am 23.9 28.4 23.9 100 0.0 SSW 7 9 4 5 1008.8 1008.6 33.0
22/03:30am 23.8 28.2 23.8 100 0.0 SW 7 7 4 4 1009.1 1008.9 33.0
22/03:00am 23.8 28.8 23.8 100 0.0 SSE 4 6 2 3 1009.3 1009.1 33.0
22/02:55am 23.9 28.6 23.9 100 0.0 SSE 6 7 3 4 1009.2 1009.0 33.0
22/02:30am 23.9 29.7 23.9 100 0.0 CALM 0 7 0 4 1009.4 1009.2 32.8
22/02:17am 23.8 29.2 23.8 100 0.0 NNW 2 7 1 4 1009.5 1009.3 32.8
22/02:00am 24.0 28.5 24.0 100 0.0 NNW 7 11 4 6 1009.6 1009.4 32.2
22/01:30am 24.1 28.3 24.1 100 0.0 NNW 9 11 5 6 1010.0 1009.8 31.4
22/01:00am 24.4 29.7 24.4 100 0.0 NNE 4 7 2 4 1010.2 1010.0 30.0
22/12:51am 24.4 29.7 24.4 100 0.0 E 4 11 2 6 1010.1 1009.9 29.2
22/12:39am 24.4 28.0 24.4 100 0.0 ESE 13 20 7 11 1010.6 1010.4 28.6
22/12:30am 24.4 28.8 24.4 100 0.0 SSE 9 20 5 11 1010.6 1010.4 26.6
22/12:00am 24.2 26.9 24.2 100 0.0 S 17 20 9 11 1010.6 1010.4 25.6
 
Date/Time
EST
Temp
°C
App
Temp
°C
Dew
Point
°C
Rel
Hum
%
Delta-T
°C
Wind Press
QNH
hPa
Press
MSL
hPa
Rain since
9am
mm
Dir  Spd
km/h
Gust
km/h
Spd
kts
Gust
kts
21/11:30pm 24.3 28.6 24.3 100 0.0 WSW 9 15 5 8 1011.0 1010.7 22.2
21/11:00pm 24.3 27.9 24.3 100 0.0 SW 13 15 7 8 1010.7 1010.5 22.2
21/10:30pm 24.5 28.6 24.5 100 0.0 SW 11 15 6 8 1011.0 1010.7 22.0
21/10:00pm 24.6 28.7 24.6 100 0.0 W 11 17 6 9 1010.7 1010.5 22.0
21/09:30pm 25.0 30.1 25.0 100 0.0 NNW 7 11 4 6 1011.0 1010.7 22.0
21/09:00pm 25.2 30.5 25.2 100 0.0 NW 7 7 4 4 1010.8 1010.6 22.0
21/08:30pm 25.0 29.7 25.0 100 0.0 N 9 17 5 9 1010.5 1010.3 22.0
21/08:00pm 24.9 28.4 24.9 100 0.0 NNE 15 24 8 13 1010.2 1010.0 22.0
21/07:30pm 25.2 29.3 25.2 100 0.0 NNE 13 24 7 13 1009.8 1009.6 22.0
21/07:12pm 25.4 29.6 25.4 100 0.0 NE 13 26 7 14 1009.8 1009.6 22.0
21/07:00pm 25.5 29.8 25.5 100 0.0 NNE 13 26 7 14 1009.7 1009.5 22.0
21/06:59pm 25.5 29.8 25.5 100 0.0 NNE 13 26 7 14 1009.7 1009.5 22.0
21/06:30pm 25.5 30.4 24.6 95 0.6 NE 7 9 4 5 1009.4 1009.2 22.0

Other Formats:

Comma delimited format used in spreadsheet applications
http://www.bom.gov.au/fwo/IDQ60801/IDQ60801.94367.axf

JavaScript Object Notation format (JSON) in row-major order
http://www.bom.gov.au/fwo/IDQ60801/IDQ60801.94367.json